Stunt Ranch Reserve, Santa Monica Mtns, California Weather observations

Data are for 10 minute period ending at time listed.
 Day   Time   Solar   Ave.   Ave.  Ave.  Vector  Max.   Baro.   Total    
  of    of     Rad.   Air    Rel.  Wind   Wind   Wind  Press.  Precip.   
Year   Day            Temp.  Hum.  Speed  Dir.   Gust                    
2019   (PST)  Kw/m2    F      %     mph   deg.    mph    mb.     in.     
-------------------------------------------------------------------------
 198    0:00   0.00   65.2    67    1.2   161     2.6   966.4    0.00 
 198    0:10   0.00   64.7    70    2.1   268     2.9   966.4    0.00 
 198    0:20   0.00   64.2    72    2.5   272     4.0   966.4    0.00 
 198    0:30   0.00   63.6    74    1.6   250     3.3   966.5    0.00 
 198    0:40   0.00   63.3    74    0.3   145     1.4   966.4    0.00 
 198    0:50   0.00   63.2    74    1.4   277     2.8   966.3    0.00 
 198    1:00   0.00   62.5    77    1.7   249     3.3   966.4    0.00 
 198    1:10   0.00   62.3    74    0.0   184     1.0   966.4    0.00 
 198    1:20   0.00   61.9    76    1.5   278     4.1   966.5    0.00 
 198    1:30   0.00   61.2    81    1.8   225     3.8   966.6    0.00 
 198    1:40   0.00   61.1    78    0.9   140     2.1   966.5    0.00 
 198    1:50   0.00   60.8    81    1.4   272     3.7   966.4    0.00 
 198    2:00   0.00   60.7    82    2.2   236     4.1   966.4    0.00 
 198    2:10   0.00   60.9    80    1.9   147     3.3   966.4    0.00 
 198    2:20   0.00   60.6    80    2.4   124     3.7   966.4    0.00 
 198    2:30   0.00   60.9    79    0.4   141     1.9   966.4    0.00 
 198    2:40   0.00   61.1    79    0.7   175     2.0   966.4    0.00 
 198    2:50   0.00   61.1    79    1.2   280     2.8   966.3    0.00 
 198    3:00   0.00   60.4    82    1.6   262     3.4   966.3    0.00 
 198    3:10   0.00   60.4    84    1.2   212     2.4   966.3    0.00 
 198    3:20   0.00   60.2    81    1.9   144     3.1   966.3    0.00 
 198    3:30   0.00   60.2    82    1.0   302     2.7   966.3    0.00 
 198    3:40   0.00   59.8    84    1.9   292     3.4   966.4    0.00 
 198    3:50   0.00   59.8    88    2.2   324     4.1   966.5    0.00 
 198    4:00   0.00   60.3    90    1.0   310     2.8   966.6    0.00 
 198    4:10   0.00   60.0    90    2.7   294     4.4   966.7    0.00 
 198    4:20   0.00   59.6    90    1.5   288     2.8   966.8    0.00 
 198    4:30   0.00   59.8    92    0.8    22     2.9   966.9    0.00 
 198    4:40   0.00   59.8    92    0.8     8     2.7   967.0    0.00 
 198    4:50   0.00   59.6    93    0.4   325     2.7   967.1    0.00 
 198    5:00   0.00   59.3    93    0.9   342     3.2   967.2    0.00 
 198    5:10   0.01   59.7    93    0.8   318     2.1   967.3    0.00 
 198    5:20   0.01   59.8    93    0.2   322     1.1   967.4    0.00 
 198    5:30   0.02   59.9    93    0.8   259     1.7   967.6    0.00 
 198    5:40   0.04   60.2    94    0.5    32     1.8   967.9    0.00 
 198    5:50   0.05   60.5    94    0.0   320     0.8   968.0    0.00 
 198    6:00   0.07   60.9    93    0.3   263     1.7   968.2    0.00 
 198    6:10   0.07   61.3    92    1.1   276     2.8   968.3    0.00 
 198    6:20   0.08   61.9    91    1.0   290     3.2   968.3    0.00 
 198    6:30   0.10   62.3    90    2.3   360     3.9   968.5    0.00 
 198    6:40   0.10   62.3    90    2.1    25     5.3   968.8    0.00 
 198    6:50   0.13   62.3    90    1.9    99     4.2   968.9    0.00 
 198    7:00   0.21   63.3    88    1.6    62     3.9   968.9    0.00 
 198    7:10   0.15   64.5    84    1.3   293     2.7   969.0    0.00 
 198    7:20   0.21   64.7    84    1.6    94     4.0   969.1    0.00 
 198    7:30   0.38   65.6    83    3.0    46     5.8   969.1    0.00 
 198    7:40   0.43   68.1    76    2.3    34     5.0   969.1    0.00 
 198    7:50   0.46   70.6    71    1.2    30     3.9   969.1    0.00 
 198    8:00   0.50   72.7    67    3.2   286     6.9   969.2    0.00 
 198    8:10   0.53   73.5    65    3.0   285     5.6   969.3    0.00 
 198    8:20   0.56   73.6    65    2.9   287     6.1   969.5    0.00 
 198    8:30   0.59   74.5    63    3.4   282     7.2   969.6    0.00 
 198    8:40   0.62   75.9    60    3.3   287     6.1   969.6    0.00 
 198    8:50   0.65   75.7    61    2.9   284     5.4   969.6    0.00 
 198    9:00   0.68   75.4    61    2.8   304     6.1   969.5    0.00 
 198    9:10   0.70   77.5    58    3.7   291     7.3   969.6    0.00 
 198    9:20   0.73   79.2    55    4.3   280     8.3   969.7    0.00 
 198    9:30   0.75   79.4    55    4.3   283     7.7   969.7    0.00 
 198    9:40   0.78   79.8    54    5.3   283     9.6   969.8    0.00 
 198    9:50   0.80   80.2    54    4.3   283     8.2   969.8    0.00 
 198   10:00   0.82   81.2    52    3.4   287     7.5   969.8    0.00 
 198   10:10   0.84   80.9    52    4.6   292     8.5   970.0    0.00 
 198   10:20   0.86   79.9    53    4.4   288     9.0   970.0    0.00 
 198   10:30   0.87   80.4    53    4.7   289     8.6   969.9    0.00 
 198   10:40   0.89   80.3    53    4.0   284    10.6   970.0    0.00 
 198   10:50   0.90   80.3    53    3.7   284     8.3   970.0    0.00 
 198   11:00   0.91   81.7    50    4.3   278     8.2   970.0    0.00 
 198   11:10   0.92   82.6    49    4.2   286     6.6   969.9    0.00 
 198   11:20   0.93   83.4    48    4.3   285     8.1   969.9    0.00 
 198   11:30   0.94   83.8    47    5.0   286     9.3   969.9    0.00 
 198   11:40   0.94   84.0    46    4.5   287     8.3   969.9    0.00 
 198   11:50   0.94   84.2    46    3.3   287     7.2   969.9    0.00 
 198   12:00   0.95   84.3    45    3.8   318     7.5   969.9    0.00 
 198   12:10   0.95   85.6    42    4.1   300     9.1   969.7    0.00 
 198   12:20   0.95   86.1    42    4.1   285     8.9   969.7    0.00 
 198   12:30   0.92   85.8    42    4.0   297     8.5   969.7    0.00 
 198   12:40   0.94   87.5    37    4.4   332    11.7   969.6    0.00 
 198   12:50   0.94   89.3    33    5.3   355    11.3   969.6    0.00 
 198   13:00   0.93   89.9    31    3.5     8     8.8   969.6    0.00 
 198   13:10   0.92   87.9    33    6.1    38    10.7   969.6    0.00 
 198   13:20   0.91   86.6    33    7.2    55    12.1   969.6    0.00 
 198   13:30   0.90   85.8    34    7.1   124    13.6   969.6    0.00 
 198   13:40   0.89   83.6    29   11.4   151    18.9   969.5    0.00 
 198   13:50   0.88   82.8    30   10.7   149    16.9   969.4    0.00 
 198   14:00   0.86   83.7    29    9.7   146    16.5   969.3    0.00 
 198   14:10   0.85   82.3    29   12.3   145    20.0   969.2    0.00 
 198   14:20   0.83   81.8    29   11.1   152    18.6   969.2    0.00 
 198   14:30   0.81   82.1    30   11.2   150    18.6   969.2    0.00 
 198   14:40   0.78   82.8    32    7.1   156    16.1   969.1    0.00 
 198   14:50   0.76   84.4    31    4.3   153     9.6   969.1    0.00 
 198   15:00   0.73   84.8    33    3.9   144    12.1   969.1    0.00 
 198   15:10   0.71   83.8    32    5.7   155    12.2   969.0    0.00 
 198   15:20   0.68   84.0    35    3.0   209     7.9   968.9    0.00 
 198   15:30   0.66   85.5    40    3.2   284     7.7   968.9    0.00 
 198   15:40   0.63   85.7    41    2.8   276     8.3   968.9    0.00 
 198   15:50   0.60   84.4    43    3.2   285     7.1   969.0    0.00 
 198   16:00   0.57   83.4    45    3.0   289     6.6   969.0    0.00 
 198   16:10   0.54   82.7    46    2.8   300     6.0   968.9    0.00 
 198   16:20   0.50   81.2    45    3.4   293     7.5   968.8    0.00 
 198   16:30   0.47   81.9    47    3.8   287     7.7   968.7    0.00 
 198   16:40   0.44   82.6    46    3.4   304    10.2   968.7    0.00 
 198   16:50   0.41   82.2    46    3.3   292     7.2   968.7    0.00 
 198   17:00   0.37   80.4    46    3.0   326     7.3   968.7    0.00 
 198   17:10   0.34   80.1    47    3.5   327     8.4   968.7    0.00 
 198   17:20   0.30   79.3    49    3.3   293     7.0   968.7    0.00 
 198   17:30   0.27   79.5    49    2.6   277     6.8   968.7    0.00 
 198   17:40   0.24   78.2    50    2.5   317     7.0   968.7    0.00 
 198   17:50   0.20   76.4    51    2.8   333     6.1   968.8    0.00 
 198   18:00   0.06   75.5    52    2.1   350     4.8   968.8    0.00 
 198   18:10   0.03   74.3    55    2.8    11     6.6   968.8    0.00 
 198   18:20   0.03   73.5    57    2.4   328     6.2   968.9    0.00 
 198   18:30   0.02   73.0    58    2.2   291     5.3   968.8    0.00 
 198   18:40   0.02   72.0    61    2.9   275     5.4   968.9    0.00 
 198   18:50   0.01   70.4    64    3.1   276     5.6   969.0    0.00 
 198   19:00   0.01   68.6    68    2.3   278     3.2   969.1    0.00 
 198   19:10   0.00   67.2    71    2.1   276     3.6   969.0    0.00 
 198   19:20   0.00   65.9    73    1.2   261     2.7   969.1    0.00 
 198   19:30   0.00   65.7    73    1.1   280     3.0   969.2    0.00 
 198   19:40   0.00   65.6    73    2.4   242     3.7   969.2    0.00 
 198   19:50   0.00   65.7    72    0.9   252     2.6   969.2    0.00 
 198   20:00   0.00   65.1    73    0.1   168     0.7   969.2    0.00 
 198   20:10   0.00   64.8    73    0.0    15     0.7   969.3    0.00 
 198   20:20   0.00   64.7    72    0.4   112     1.7   969.5    0.00 
 198   20:30   0.00   65.1    72    0.0   147     0.7   969.5    0.00 
 198   20:40   0.00   65.3    74    0.3   283     1.2   969.6    0.00 
 198   20:50   0.00   64.9    75    1.0   300     1.8   969.7    0.00 
 198   21:00   0.00   64.7    76    1.1   232     1.6   969.7    0.00 
 198   21:10   0.00   64.3    77    0.8   297     1.8   969.8    0.00 
 198   21:20   0.00   64.0    78    0.8   237     1.6   969.9    0.00 
 198   21:30   0.00   63.8    79    0.8   250     1.2   969.9    0.00 
 198   21:40   0.00   63.4    80    0.8   237     1.6   969.9    0.00 
 198   21:50   0.00   63.0    80    0.0   235     0.7   970.0    0.00 
 198   22:00   0.00   62.7    81    1.2   277     2.5   970.0    0.00 

Return to Stunt Ranch Reserve graphs page.


Western Regional Climate Center,wrcc@dri.edu